sensor_id;sensor_type;location;lat;lon;timestamp;P1;durP1;ratioP1;P2;durP2;ratioP2
23304;SDS011;11821;51.456;8.844;2023-02-10T00:01:08;61.70;;;25.05;;
23304;SDS011;11821;51.456;8.844;2023-02-10T00:03:35;56.75;;;24.77;;
23304;SDS011;11821;51.456;8.844;2023-02-10T00:06:02;63.50;;;26.85;;
23304;SDS011;11821;51.456;8.844;2023-02-10T00:08:29;62.70;;;26.73;;
23304;SDS011;11821;51.456;8.844;2023-02-10T00:10:56;66.43;;;25.70;;
23304;SDS011;11821;51.456;8.844;2023-02-10T00:13:24;69.40;;;27.33;;
23304;SDS011;11821;51.456;8.844;2023-02-10T00:15:50;62.80;;;25.13;;
23304;SDS011;11821;51.456;8.844;2023-02-10T00:18:17;62.22;;;24.95;;
23304;SDS011;11821;51.456;8.844;2023-02-10T00:20:44;60.28;;;25.27;;
23304;SDS011;11821;51.456;8.844;2023-02-10T00:23:11;63.65;;;25.20;;
23304;SDS011;11821;51.456;8.844;2023-02-10T00:25:37;61.65;;;26.15;;
23304;SDS011;11821;51.456;8.844;2023-02-10T00:28:04;59.10;;;22.98;;
23304;SDS011;11821;51.456;8.844;2023-02-10T00:30:33;67.22;;;26.75;;
23304;SDS011;11821;51.456;8.844;2023-02-10T00:33:00;68.63;;;27.85;;
23304;SDS011;11821;51.456;8.844;2023-02-10T00:35:26;66.97;;;26.92;;
23304;SDS011;11821;51.456;8.844;2023-02-10T00:37:53;69.47;;;27.17;;
23304;SDS011;11821;51.456;8.844;2023-02-10T00:40:19;74.88;;;26.15;;
23304;SDS011;11821;51.456;8.844;2023-02-10T00:42:46;73.35;;;27.70;;
23304;SDS011;11821;51.456;8.844;2023-02-10T00:45:12;71.35;;;26.27;;
23304;SDS011;11821;51.456;8.844;2023-02-10T00:47:39;66.95;;;27.98;;
23304;SDS011;11821;51.456;8.844;2023-02-10T00:50:06;62.50;;;27.67;;
23304;SDS011;11821;51.456;8.844;2023-02-10T00:52:33;71.70;;;27.40;;
23304;SDS011;11821;51.456;8.844;2023-02-10T00:54:59;67.78;;;29.02;;
23304;SDS011;11821;51.456;8.844;2023-02-10T00:57:26;78.40;;;27.63;;
23304;SDS011;11821;51.456;8.844;2023-02-10T00:59:52;79.60;;;29.98;;
23304;SDS011;11821;51.456;8.844;2023-02-10T01:02:20;76.15;;;28.92;;
23304;SDS011;11821;51.456;8.844;2023-02-10T01:04:46;73.78;;;26.98;;
23304;SDS011;11821;51.456;8.844;2023-02-10T01:07:13;71.15;;;26.42;;
23304;SDS011;11821;51.456;8.844;2023-02-10T01:09:41;72.63;;;28.27;;
23304;SDS011;11821;51.456;8.844;2023-02-10T01:12:08;73.63;;;30.10;;
23304;SDS011;11821;51.456;8.844;2023-02-10T01:14:34;89.22;;;30.63;;
23304;SDS011;11821;51.456;8.844;2023-02-10T01:17:01;72.57;;;27.10;;
23304;SDS011;11821;51.456;8.844;2023-02-10T01:19:28;86.57;;;30.98;;
23304;SDS011;11821;51.456;8.844;2023-02-10T01:21:55;91.28;;;30.48;;
23304;SDS011;11821;51.456;8.844;2023-02-10T01:24:21;85.50;;;32.25;;
23304;SDS011;11821;51.456;8.844;2023-02-10T01:26:48;80.82;;;29.73;;
23304;SDS011;11821;51.456;8.844;2023-02-10T01:29:15;93.63;;;32.80;;
23304;SDS011;11821;51.456;8.844;2023-02-10T01:31:42;88.97;;;31.58;;
23304;SDS011;11821;51.456;8.844;2023-02-10T01:34:08;89.78;;;32.67;;
23304;SDS011;11821;51.456;8.844;2023-02-10T01:36:36;97.72;;;34.28;;
23304;SDS011;11821;51.456;8.844;2023-02-10T01:39:02;78.93;;;31.13;;
23304;SDS011;11821;51.456;8.844;2023-02-10T01:41:30;87.38;;;30.75;;
23304;SDS011;11821;51.456;8.844;2023-02-10T01:44:01;89.10;;;30.90;;
23304;SDS011;11821;51.456;8.844;2023-02-10T01:46:28;92.40;;;31.85;;
23304;SDS011;11821;51.456;8.844;2023-02-10T01:48:55;87.65;;;32.25;;
23304;SDS011;11821;51.456;8.844;2023-02-10T01:51:24;96.88;;;34.53;;
23304;SDS011;11821;51.456;8.844;2023-02-10T01:53:52;94.70;;;34.03;;
23304;SDS011;11821;51.456;8.844;2023-02-10T01:56:18;98.50;;;34.67;;
23304;SDS011;11821;51.456;8.844;2023-02-10T01:58:45;103.82;;;32.85;;
23304;SDS011;11821;51.456;8.844;2023-02-10T02:01:13;99.95;;;35.00;;
23304;SDS011;11821;51.456;8.844;2023-02-10T02:03:39;90.85;;;32.90;;
23304;SDS011;11821;51.456;8.844;2023-02-10T02:06:10;97.53;;;33.38;;
23304;SDS011;11821;51.456;8.844;2023-02-10T02:08:37;98.72;;;32.78;;
23304;SDS011;11821;51.456;8.844;2023-02-10T02:13:43;83.80;;;31.92;;
23304;SDS011;11821;51.456;8.844;2023-02-10T02:24:07;99.53;;;34.97;;
23304;SDS011;11821;51.456;8.844;2023-02-10T02:31:57;111.60;;;35.42;;
23304;SDS011;11821;51.456;8.844;2023-02-10T02:37:13;110.57;;;35.47;;
23304;SDS011;11821;51.456;8.844;2023-02-10T02:39:42;101.03;;;34.70;;
23304;SDS011;11821;51.456;8.844;2023-02-10T02:42:13;107.80;;;34.60;;
23304;SDS011;11821;51.456;8.844;2023-02-10T02:44:41;106.82;;;34.92;;
23304;SDS011;11821;51.456;8.844;2023-02-10T02:47:18;105.20;;;36.58;;
23304;SDS011;11821;51.456;8.844;2023-02-10T02:55:17;103.60;;;35.33;;
23304;SDS011;11821;51.456;8.844;2023-02-10T02:57:49;118.68;;;37.53;;
23304;SDS011;11821;51.456;8.844;2023-02-10T03:00:22;121.78;;;38.30;;
23304;SDS011;11821;51.456;8.844;2023-02-10T03:02:50;95.78;;;32.13;;
23304;SDS011;11821;51.456;8.844;2023-02-10T03:05:22;110.15;;;38.20;;
23304;SDS011;11821;51.456;8.844;2023-02-10T03:07:49;118.50;;;37.88;;
23304;SDS011;11821;51.456;8.844;2023-02-10T03:10:16;114.25;;;37.90;;
23304;SDS011;11821;51.456;8.844;2023-02-10T03:12:42;105.45;;;36.65;;
23304;SDS011;11821;51.456;8.844;2023-02-10T03:15:09;117.97;;;36.58;;
23304;SDS011;11821;51.456;8.844;2023-02-10T03:17:36;113.47;;;37.53;;
23304;SDS011;11821;51.456;8.844;2023-02-10T03:20:03;107.07;;;34.50;;
23304;SDS011;11821;51.456;8.844;2023-02-10T03:22:30;112.32;;;37.33;;
23304;SDS011;11821;51.456;8.844;2023-02-10T03:24:56;126.50;;;38.28;;
23304;SDS011;11821;51.456;8.844;2023-02-10T03:27:23;121.32;;;39.03;;
23304;SDS011;11821;51.456;8.844;2023-02-10T03:29:49;109.30;;;36.83;;
23304;SDS011;11821;51.456;8.844;2023-02-10T03:32:18;112.10;;;36.97;;
23304;SDS011;11821;51.456;8.844;2023-02-10T03:34:45;113.72;;;37.17;;
23304;SDS011;11821;51.456;8.844;2023-02-10T03:37:11;117.20;;;38.45;;
23304;SDS011;11821;51.456;8.844;2023-02-10T03:39:38;99.03;;;33.70;;
23304;SDS011;11821;51.456;8.844;2023-02-10T03:42:05;110.38;;;37.17;;
23304;SDS011;11821;51.456;8.844;2023-02-10T03:44:32;97.68;;;36.70;;
23304;SDS011;11821;51.456;8.844;2023-02-10T03:46:58;113.63;;;39.30;;
23304;SDS011;11821;51.456;8.844;2023-02-10T03:49:25;106.72;;;34.65;;
23304;SDS011;11821;51.456;8.844;2023-02-10T03:51:52;109.13;;;34.35;;
23304;SDS011;11821;51.456;8.844;2023-02-10T03:54:18;102.22;;;32.22;;
23304;SDS011;11821;51.456;8.844;2023-02-10T03:56:46;113.30;;;36.42;;
23304;SDS011;11821;51.456;8.844;2023-02-10T03:59:12;98.80;;;35.95;;
23304;SDS011;11821;51.456;8.844;2023-02-10T04:01:39;107.55;;;34.67;;
23304;SDS011;11821;51.456;8.844;2023-02-10T04:04:05;123.10;;;36.47;;
23304;SDS011;11821;51.456;8.844;2023-02-10T04:06:32;116.28;;;36.38;;
23304;SDS011;11821;51.456;8.844;2023-02-10T04:08:58;109.93;;;37.65;;
23304;SDS011;11821;51.456;8.844;2023-02-10T04:11:25;87.88;;;28.60;;
23304;SDS011;11821;51.456;8.844;2023-02-10T04:13:51;114.45;;;38.42;;
23304;SDS011;11821;51.456;8.844;2023-02-10T04:16:18;117.75;;;37.28;;
23304;SDS011;11821;51.456;8.844;2023-02-10T04:18:47;112.90;;;36.58;;
23304;SDS011;11821;51.456;8.844;2023-02-10T04:21:13;105.90;;;39.25;;
23304;SDS011;11821;51.456;8.844;2023-02-10T04:23:40;104.90;;;36.92;;
23304;SDS011;11821;51.456;8.844;2023-02-10T04:26:07;115.25;;;38.33;;
23304;SDS011;11821;51.456;8.844;2023-02-10T04:28:33;116.40;;;36.97;;
23304;SDS011;11821;51.456;8.844;2023-02-10T04:31:00;113.53;;;36.35;;
23304;SDS011;11821;51.456;8.844;2023-02-10T04:33:27;121.30;;;37.88;;
23304;SDS011;11821;51.456;8.844;2023-02-10T04:35:53;110.38;;;37.40;;
23304;SDS011;11821;51.456;8.844;2023-02-10T04:38:20;110.13;;;36.55;;
23304;SDS011;11821;51.456;8.844;2023-02-10T04:40:47;112.80;;;35.97;;
23304;SDS011;11821;51.456;8.844;2023-02-10T04:43:14;122.15;;;40.75;;
23304;SDS011;11821;51.456;8.844;2023-02-10T04:45:41;116.45;;;37.22;;
23304;SDS011;11821;51.456;8.844;2023-02-10T04:48:07;103.75;;;35.10;;
23304;SDS011;11821;51.456;8.844;2023-02-10T04:50:35;81.50;;;28.27;;
23304;SDS011;11821;51.456;8.844;2023-02-10T04:53:02;97.07;;;33.25;;
23304;SDS011;11821;51.456;8.844;2023-02-10T04:55:29;70.40;;;29.33;;
23304;SDS011;11821;51.456;8.844;2023-02-10T04:57:55;87.10;;;31.10;;
23304;SDS011;11821;51.456;8.844;2023-02-10T05:00:22;103.25;;;33.17;;
23304;SDS011;11821;51.456;8.844;2023-02-10T05:02:48;93.05;;;32.33;;
23304;SDS011;11821;51.456;8.844;2023-02-10T05:05:15;93.20;;;32.40;;
23304;SDS011;11821;51.456;8.844;2023-02-10T05:07:42;112.82;;;35.03;;
23304;SDS011;11821;51.456;8.844;2023-02-10T05:10:08;102.50;;;34.83;;
23304;SDS011;11821;51.456;8.844;2023-02-10T05:12:35;81.32;;;30.35;;
23304;SDS011;11821;51.456;8.844;2023-02-10T05:15:02;95.50;;;33.63;;
23304;SDS011;11821;51.456;8.844;2023-02-10T05:17:29;109.25;;;35.35;;
23304;SDS011;11821;51.456;8.844;2023-02-10T05:19:55;106.50;;;34.38;;
23304;SDS011;11821;51.456;8.844;2023-02-10T05:22:22;93.30;;;33.65;;
23304;SDS011;11821;51.456;8.844;2023-02-10T05:24:57;103.88;;;35.10;;
23304;SDS011;11821;51.456;8.844;2023-02-10T05:27:24;94.00;;;30.63;;
23304;SDS011;11821;51.456;8.844;2023-02-10T05:29:51;87.97;;;28.27;;
23304;SDS011;11821;51.456;8.844;2023-02-10T05:32:17;95.28;;;33.85;;
23304;SDS011;11821;51.456;8.844;2023-02-10T05:34:44;90.47;;;31.42;;
23304;SDS011;11821;51.456;8.844;2023-02-10T05:37:10;89.90;;;31.48;;
23304;SDS011;11821;51.456;8.844;2023-02-10T05:39:37;91.22;;;32.47;;
23304;SDS011;11821;51.456;8.844;2023-02-10T05:42:04;94.45;;;33.40;;
23304;SDS011;11821;51.456;8.844;2023-02-10T05:44:30;92.22;;;34.08;;
23304;SDS011;11821;51.456;8.844;2023-02-10T05:46:57;73.50;;;27.45;;
23304;SDS011;11821;51.456;8.844;2023-02-10T05:49:24;78.43;;;27.63;;
23304;SDS011;11821;51.456;8.844;2023-02-10T05:51:50;79.03;;;28.13;;
23304;SDS011;11821;51.456;8.844;2023-02-10T05:54:17;76.30;;;25.65;;
23304;SDS011;11821;51.456;8.844;2023-02-10T05:56:44;72.55;;;25.83;;
23304;SDS011;11821;51.456;8.844;2023-02-10T05:59:11;68.68;;;26.10;;
23304;SDS011;11821;51.456;8.844;2023-02-10T06:01:41;63.67;;;24.77;;
23304;SDS011;11821;51.456;8.844;2023-02-10T06:04:08;73.68;;;26.85;;
23304;SDS011;11821;51.456;8.844;2023-02-10T06:06:34;61.88;;;25.33;;
23304;SDS011;11821;51.456;8.844;2023-02-10T06:09:01;72.38;;;26.13;;
23304;SDS011;11821;51.456;8.844;2023-02-10T06:11:28;58.92;;;23.83;;
23304;SDS011;11821;51.456;8.844;2023-02-10T06:13:54;70.85;;;25.65;;
23304;SDS011;11821;51.456;8.844;2023-02-10T06:16:21;65.15;;;26.20;;
23304;SDS011;11821;51.456;8.844;2023-02-10T06:18:47;50.85;;;21.88;;
23304;SDS011;11821;51.456;8.844;2023-02-10T06:21:14;64.63;;;25.90;;
23304;SDS011;11821;51.456;8.844;2023-02-10T06:23:41;63.50;;;25.48;;
23304;SDS011;11821;51.456;8.844;2023-02-10T06:26:08;62.40;;;24.05;;
23304;SDS011;11821;51.456;8.844;2023-02-10T06:28:35;57.22;;;23.00;;
23304;SDS011;11821;51.456;8.844;2023-02-10T06:31:01;64.32;;;25.25;;
23304;SDS011;11821;51.456;8.844;2023-02-10T06:33:28;66.43;;;25.25;;
23304;SDS011;11821;51.456;8.844;2023-02-10T06:35:55;67.82;;;23.23;;
23304;SDS011;11821;51.456;8.844;2023-02-10T06:38:22;64.45;;;25.85;;
23304;SDS011;11821;51.456;8.844;2023-02-10T06:40:48;61.38;;;23.95;;
23304;SDS011;11821;51.456;8.844;2023-02-10T06:43:15;62.95;;;25.75;;
23304;SDS011;11821;51.456;8.844;2023-02-10T06:45:41;70.55;;;24.05;;
23304;SDS011;11821;51.456;8.844;2023-02-10T06:48:08;62.83;;;23.60;;
23304;SDS011;11821;51.456;8.844;2023-02-10T06:50:35;42.13;;;18.17;;
23304;SDS011;11821;51.456;8.844;2023-02-10T06:53:03;61.08;;;23.88;;
23304;SDS011;11821;51.456;8.844;2023-02-10T06:55:30;70.55;;;23.50;;
23304;SDS011;11821;51.456;8.844;2023-02-10T06:57:59;61.80;;;24.98;;
23304;SDS011;11821;51.456;8.844;2023-02-10T07:00:26;42.47;;;17.55;;
23304;SDS011;11821;51.456;8.844;2023-02-10T07:02:53;72.15;;;25.40;;
23304;SDS011;11821;51.456;8.844;2023-02-10T07:05:19;49.88;;;20.23;;
23304;SDS011;11821;51.456;8.844;2023-02-10T07:07:46;62.35;;;25.30;;
23304;SDS011;11821;51.456;8.844;2023-02-10T07:10:12;61.92;;;23.63;;
23304;SDS011;11821;51.456;8.844;2023-02-10T07:12:39;50.92;;;20.73;;
23304;SDS011;11821;51.456;8.844;2023-02-10T07:15:06;51.58;;;21.83;;
23304;SDS011;11821;51.456;8.844;2023-02-10T07:17:33;66.05;;;25.02;;
23304;SDS011;11821;51.456;8.844;2023-02-10T07:20:02;67.00;;;23.73;;
23304;SDS011;11821;51.456;8.844;2023-02-10T07:22:29;58.63;;;23.42;;
23304;SDS011;11821;51.456;8.844;2023-02-10T07:24:56;60.38;;;22.98;;
23304;SDS011;11821;51.456;8.844;2023-02-10T07:27:22;61.72;;;22.92;;
23304;SDS011;11821;51.456;8.844;2023-02-10T07:29:49;69.85;;;24.25;;
23304;SDS011;11821;51.456;8.844;2023-02-10T07:32:15;65.28;;;24.75;;
23304;SDS011;11821;51.456;8.844;2023-02-10T07:34:42;71.85;;;27.17;;
23304;SDS011;11821;51.456;8.844;2023-02-10T07:37:09;73.80;;;29.90;;
23304;SDS011;11821;51.456;8.844;2023-02-10T07:39:35;78.85;;;29.35;;
23304;SDS011;11821;51.456;8.844;2023-02-10T07:42:02;79.40;;;29.48;;
23304;SDS011;11821;51.456;8.844;2023-02-10T07:44:44;62.38;;;26.30;;
23304;SDS011;11821;51.456;8.844;2023-02-10T07:47:11;45.85;;;21.13;;
23304;SDS011;11821;51.456;8.844;2023-02-10T07:49:37;70.07;;;26.17;;
23304;SDS011;11821;51.456;8.844;2023-02-10T07:52:04;63.92;;;25.52;;
23304;SDS011;11821;51.456;8.844;2023-02-10T07:54:31;63.97;;;24.50;;
23304;SDS011;11821;51.456;8.844;2023-02-10T07:56:57;66.90;;;26.58;;
23304;SDS011;11821;51.456;8.844;2023-02-10T07:59:24;55.35;;;24.23;;
23304;SDS011;11821;51.456;8.844;2023-02-10T08:01:50;71.55;;;23.85;;
23304;SDS011;11821;51.456;8.844;2023-02-10T08:04:17;50.83;;;21.45;;
23304;SDS011;11821;51.456;8.844;2023-02-10T08:06:43;51.58;;;23.25;;
23304;SDS011;11821;51.456;8.844;2023-02-10T08:09:10;44.22;;;21.08;;
23304;SDS011;11821;51.456;8.844;2023-02-10T08:11:37;58.22;;;22.58;;
23304;SDS011;11821;51.456;8.844;2023-02-10T08:14:04;49.95;;;22.27;;
23304;SDS011;11821;51.456;8.844;2023-02-10T08:16:30;45.83;;;20.83;;
23304;SDS011;11821;51.456;8.844;2023-02-10T08:18:57;48.38;;;20.85;;
23304;SDS011;11821;51.456;8.844;2023-02-10T08:21:24;44.80;;;20.25;;
23304;SDS011;11821;51.456;8.844;2023-02-10T08:23:52;39.72;;;18.25;;
23304;SDS011;11821;51.456;8.844;2023-02-10T08:26:20;36.58;;;16.88;;
23304;SDS011;11821;51.456;8.844;2023-02-10T08:28:48;50.05;;;20.10;;
23304;SDS011;11821;51.456;8.844;2023-02-10T08:31:14;45.10;;;20.90;;
23304;SDS011;11821;51.456;8.844;2023-02-10T08:33:41;54.17;;;22.02;;
23304;SDS011;11821;51.456;8.844;2023-02-10T08:36:09;37.75;;;18.48;;
23304;SDS011;11821;51.456;8.844;2023-02-10T08:38:37;42.90;;;19.83;;
23304;SDS011;11821;51.456;8.844;2023-02-10T08:41:04;37.05;;;18.90;;
23304;SDS011;11821;51.456;8.844;2023-02-10T08:43:30;40.45;;;17.63;;
23304;SDS011;11821;51.456;8.844;2023-02-10T08:45:58;38.28;;;18.60;;
23304;SDS011;11821;51.456;8.844;2023-02-10T08:48:25;35.00;;;17.10;;
23304;SDS011;11821;51.456;8.844;2023-02-10T08:50:51;38.75;;;18.20;;
23304;SDS011;11821;51.456;8.844;2023-02-10T08:53:19;41.70;;;20.98;;
23304;SDS011;11821;51.456;8.844;2023-02-10T08:55:59;40.80;;;19.17;;
23304;SDS011;11821;51.456;8.844;2023-02-10T08:58:26;41.75;;;19.48;;
23304;SDS011;11821;51.456;8.844;2023-02-10T09:00:53;34.63;;;18.00;;
23304;SDS011;11821;51.456;8.844;2023-02-10T09:03:19;39.50;;;20.17;;
23304;SDS011;11821;51.456;8.844;2023-02-10T09:05:47;36.00;;;19.10;;
23304;SDS011;11821;51.456;8.844;2023-02-10T09:08:14;35.55;;;17.08;;
23304;SDS011;11821;51.456;8.844;2023-02-10T09:10:42;38.05;;;17.70;;
23304;SDS011;11821;51.456;8.844;2023-02-10T09:13:08;34.47;;;18.02;;
23304;SDS011;11821;51.456;8.844;2023-02-10T09:15:39;36.40;;;16.85;;
23304;SDS011;11821;51.456;8.844;2023-02-10T09:18:07;31.77;;;15.95;;
23304;SDS011;11821;51.456;8.844;2023-02-10T09:20:34;33.22;;;15.90;;
23304;SDS011;11821;51.456;8.844;2023-02-10T09:23:01;31.83;;;17.35;;
23304;SDS011;11821;51.456;8.844;2023-02-10T09:25:28;34.35;;;17.10;;
23304;SDS011;11821;51.456;8.844;2023-02-10T09:27:55;29.27;;;17.00;;
23304;SDS011;11821;51.456;8.844;2023-02-10T09:30:26;30.38;;;16.58;;
23304;SDS011;11821;51.456;8.844;2023-02-10T09:32:53;27.77;;;14.95;;
23304;SDS011;11821;51.456;8.844;2023-02-10T09:35:19;30.63;;;16.10;;
23304;SDS011;11821;51.456;8.844;2023-02-10T09:37:46;29.85;;;15.35;;
23304;SDS011;11821;51.456;8.844;2023-02-10T09:40:17;26.50;;;15.25;;
23304;SDS011;11821;51.456;8.844;2023-02-10T09:43:02;30.50;;;14.93;;
23304;SDS011;11821;51.456;8.844;2023-02-10T09:45:35;28.90;;;14.68;;
23304;SDS011;11821;51.456;8.844;2023-02-10T09:48:23;22.20;;;11.95;;
23304;SDS011;11821;51.456;8.844;2023-02-10T09:53:30;22.20;;;12.50;;
23304;SDS011;11821;51.456;8.844;2023-02-10T09:55:58;23.70;;;12.60;;
23304;SDS011;11821;51.456;8.844;2023-02-10T10:03:56;26.95;;;14.70;;
23304;SDS011;11821;51.456;8.844;2023-02-10T10:06:22;24.67;;;13.35;;
23304;SDS011;11821;51.456;8.844;2023-02-10T10:11:23;21.48;;;14.20;;
23304;SDS011;11821;51.456;8.844;2023-02-10T10:13:50;25.85;;;13.10;;
23304;SDS011;11821;51.456;8.844;2023-02-10T10:18:47;26.25;;;13.27;;
23304;SDS011;11821;51.456;8.844;2023-02-10T10:21:38;28.50;;;12.57;;
23304;SDS011;11821;51.456;8.844;2023-02-10T10:24:41;21.75;;;12.10;;
23304;SDS011;11821;51.456;8.844;2023-02-10T10:29:51;22.48;;;11.73;;
23304;SDS011;11821;51.456;8.844;2023-02-10T10:34:50;22.27;;;12.07;;
23304;SDS011;11821;51.456;8.844;2023-02-10T10:37:19;21.02;;;11.90;;
23304;SDS011;11821;51.456;8.844;2023-02-10T10:39:48;24.40;;;12.25;;
23304;SDS011;11821;51.456;8.844;2023-02-10T10:44:42;18.40;;;10.80;;
23304;SDS011;11821;51.456;8.844;2023-02-10T10:47:13;17.30;;;10.80;;
23304;SDS011;11821;51.456;8.844;2023-02-10T10:49:40;22.35;;;11.25;;
23304;SDS011;11821;51.456;8.844;2023-02-10T10:52:23;18.75;;;11.30;;
23304;SDS011;11821;51.456;8.844;2023-02-10T10:54:53;21.48;;;11.52;;
23304;SDS011;11821;51.456;8.844;2023-02-10T10:57:19;20.48;;;11.48;;
23304;SDS011;11821;51.456;8.844;2023-02-10T10:59:48;23.35;;;11.57;;
23304;SDS011;11821;51.456;8.844;2023-02-10T11:02:18;22.80;;;12.00;;
23304;SDS011;11821;51.456;8.844;2023-02-10T11:04:45;21.63;;;11.60;;
23304;SDS011;11821;51.456;8.844;2023-02-10T11:07:12;20.83;;;11.23;;
23304;SDS011;11821;51.456;8.844;2023-02-10T11:09:51;18.80;;;11.32;;
23304;SDS011;11821;51.456;8.844;2023-02-10T11:13:00;22.95;;;11.23;;
23304;SDS011;11821;51.456;8.844;2023-02-10T11:15:28;25.80;;;11.85;;
23304;SDS011;11821;51.456;8.844;2023-02-10T11:17:56;26.83;;;12.32;;
23304;SDS011;11821;51.456;8.844;2023-02-10T11:20:25;22.40;;;10.85;;
23304;SDS011;11821;51.456;8.844;2023-02-10T11:23:03;21.90;;;11.52;;
23304;SDS011;11821;51.456;8.844;2023-02-10T11:25:34;17.67;;;10.55;;
23304;SDS011;11821;51.456;8.844;2023-02-10T11:28:01;23.23;;;11.70;;
23304;SDS011;11821;51.456;8.844;2023-02-10T11:30:35;22.30;;;11.55;;
23304;SDS011;11821;51.456;8.844;2023-02-10T11:33:03;17.90;;;9.68;;
23304;SDS011;11821;51.456;8.844;2023-02-10T11:35:31;20.73;;;11.63;;
23304;SDS011;11821;51.456;8.844;2023-02-10T11:38:07;20.17;;;11.23;;
23304;SDS011;11821;51.456;8.844;2023-02-10T11:40:52;18.45;;;11.23;;
23304;SDS011;11821;51.456;8.844;2023-02-10T11:43:20;19.90;;;12.52;;
23304;SDS011;11821;51.456;8.844;2023-02-10T11:45:52;23.20;;;13.27;;
23304;SDS011;11821;51.456;8.844;2023-02-10T11:48:19;24.05;;;12.35;;
23304;SDS011;11821;51.456;8.844;2023-02-10T11:50:47;31.25;;;13.73;;
23304;SDS011;11821;51.456;8.844;2023-02-10T11:53:24;28.55;;;12.35;;
23304;SDS011;11821;51.456;8.844;2023-02-10T11:55:52;21.90;;;12.55;;
23304;SDS011;11821;51.456;8.844;2023-02-10T12:09:31;20.13;;;11.45;;
23304;SDS011;11821;51.456;8.844;2023-02-10T12:17:38;20.30;;;11.82;;
23304;SDS011;11821;51.456;8.844;2023-02-10T12:20:14;22.58;;;12.50;;
23304;SDS011;11821;51.456;8.844;2023-02-10T12:23:00;17.80;;;10.77;;
23304;SDS011;11821;51.456;8.844;2023-02-10T12:25:51;18.70;;;11.35;;
23304;SDS011;11821;51.456;8.844;2023-02-10T12:30:50;16.75;;;10.63;;
23304;SDS011;11821;51.456;8.844;2023-02-10T12:53:50;21.38;;;11.95;;
23304;SDS011;11821;51.456;8.844;2023-02-10T12:56:20;22.10;;;11.52;;
23304;SDS011;11821;51.456;8.844;2023-02-10T12:58:50;22.15;;;11.38;;
23304;SDS011;11821;51.456;8.844;2023-02-10T13:01:19;21.30;;;11.48;;
23304;SDS011;11821;51.456;8.844;2023-02-10T13:03:49;19.85;;;10.68;;
23304;SDS011;11821;51.456;8.844;2023-02-10T13:06:34;18.80;;;11.60;;
23304;SDS011;11821;51.456;8.844;2023-02-10T13:09:17;20.17;;;11.63;;
23304;SDS011;11821;51.456;8.844;2023-02-10T13:14:22;21.95;;;13.40;;
23304;SDS011;11821;51.456;8.844;2023-02-10T13:16:54;22.42;;;12.60;;
23304;SDS011;11821;51.456;8.844;2023-02-10T13:30:06;17.75;;;11.35;;
23304;SDS011;11821;51.456;8.844;2023-02-10T13:35:07;19.48;;;11.65;;
23304;SDS011;11821;51.456;8.844;2023-02-10T13:37:47;17.80;;;10.70;;
23304;SDS011;11821;51.456;8.844;2023-02-10T13:40:23;22.88;;;11.38;;
23304;SDS011;11821;51.456;8.844;2023-02-10T13:42:52;23.42;;;11.73;;
23304;SDS011;11821;51.456;8.844;2023-02-10T13:45:20;22.98;;;12.05;;
23304;SDS011;11821;51.456;8.844;2023-02-10T13:47:53;21.60;;;11.90;;
23304;SDS011;11821;51.456;8.844;2023-02-10T13:53:24;16.58;;;11.57;;
23304;SDS011;11821;51.456;8.844;2023-02-10T14:00:29;23.55;;;12.38;;
23304;SDS011;11821;51.456;8.844;2023-02-10T14:03:32;18.40;;;11.07;;
23304;SDS011;11821;51.456;8.844;2023-02-10T14:05:57;22.55;;;12.02;;
23304;SDS011;11821;51.456;8.844;2023-02-10T14:08:32;17.15;;;10.82;;
23304;SDS011;11821;51.456;8.844;2023-02-10T14:11:04;17.45;;;11.65;;
23304;SDS011;11821;51.456;8.844;2023-02-10T14:13:34;22.92;;;11.50;;
23304;SDS011;11821;51.456;8.844;2023-02-10T14:16:03;18.88;;;11.45;;
23304;SDS011;11821;51.456;8.844;2023-02-10T14:18:31;17.65;;;11.02;;
23304;SDS011;11821;51.456;8.844;2023-02-10T14:21:14;17.00;;;10.05;;
23304;SDS011;11821;51.456;8.844;2023-02-10T14:23:49;19.17;;;11.43;;
23304;SDS011;11821;51.456;8.844;2023-02-10T14:26:31;14.65;;;9.70;;
23304;SDS011;11821;51.456;8.844;2023-02-10T14:28:58;16.13;;;10.65;;
23304;SDS011;11821;51.456;8.844;2023-02-10T14:31:27;14.85;;;10.00;;
23304;SDS011;11821;51.456;8.844;2023-02-10T14:33:55;19.55;;;10.50;;
23304;SDS011;11821;51.456;8.844;2023-02-10T14:36:22;18.55;;;10.98;;
23304;SDS011;11821;51.456;8.844;2023-02-10T14:38:56;17.48;;;10.45;;
23304;SDS011;11821;51.456;8.844;2023-02-10T14:41:23;19.25;;;11.30;;
23304;SDS011;11821;51.456;8.844;2023-02-10T14:43:50;15.65;;;10.68;;
23304;SDS011;11821;51.456;8.844;2023-02-10T14:46:22;15.52;;;10.48;;
23304;SDS011;11821;51.456;8.844;2023-02-10T14:51:21;16.33;;;9.60;;
23304;SDS011;11821;51.456;8.844;2023-02-10T14:53:48;15.35;;;10.10;;
23304;SDS011;11821;51.456;8.844;2023-02-10T14:56:19;17.13;;;10.00;;
23304;SDS011;11821;51.456;8.844;2023-02-10T14:58:46;18.93;;;10.13;;
23304;SDS011;11821;51.456;8.844;2023-02-10T15:01:15;19.55;;;11.65;;
23304;SDS011;11821;51.456;8.844;2023-02-10T15:03:44;19.67;;;11.60;;
23304;SDS011;11821;51.456;8.844;2023-02-10T15:06:14;16.85;;;10.30;;
23304;SDS011;11821;51.456;8.844;2023-02-10T15:09:00;14.27;;;9.68;;
23304;SDS011;11821;51.456;8.844;2023-02-10T15:11:31;17.95;;;10.57;;
23304;SDS011;11821;51.456;8.844;2023-02-10T15:16:48;15.52;;;9.73;;
23304;SDS011;11821;51.456;8.844;2023-02-10T15:19:15;16.65;;;9.73;;
23304;SDS011;11821;51.456;8.844;2023-02-10T15:21:43;15.15;;;9.77;;
23304;SDS011;11821;51.456;8.844;2023-02-10T15:26:49;13.07;;;9.02;;
23304;SDS011;11821;51.456;8.844;2023-02-10T15:29:16;14.50;;;9.13;;
23304;SDS011;11821;51.456;8.844;2023-02-10T15:31:58;13.73;;;9.05;;
23304;SDS011;11821;51.456;8.844;2023-02-10T15:34:26;18.70;;;10.20;;
23304;SDS011;11821;51.456;8.844;2023-02-10T15:39:34;16.67;;;10.30;;
23304;SDS011;11821;51.456;8.844;2023-02-10T15:44:36;15.27;;;8.73;;
23304;SDS011;11821;51.456;8.844;2023-02-10T15:47:21;15.60;;;8.85;;
23304;SDS011;11821;51.456;8.844;2023-02-10T15:49:52;12.23;;;8.38;;
23304;SDS011;11821;51.456;8.844;2023-02-10T15:52:20;12.18;;;8.75;;
23304;SDS011;11821;51.456;8.844;2023-02-10T15:54:48;17.23;;;9.23;;
23304;SDS011;11821;51.456;8.844;2023-02-10T15:57:15;13.60;;;8.13;;
23304;SDS011;11821;51.456;8.844;2023-02-10T15:59:42;17.15;;;8.88;;
23304;SDS011;11821;51.456;8.844;2023-02-10T16:02:11;14.50;;;8.05;;
23304;SDS011;11821;51.456;8.844;2023-02-10T16:04:38;11.70;;;8.80;;
23304;SDS011;11821;51.456;8.844;2023-02-10T16:07:05;13.88;;;8.82;;
23304;SDS011;11821;51.456;8.844;2023-02-10T16:09:32;15.75;;;9.23;;
23304;SDS011;11821;51.456;8.844;2023-02-10T16:11:59;13.70;;;8.60;;
23304;SDS011;11821;51.456;8.844;2023-02-10T16:14:26;17.23;;;10.30;;
23304;SDS011;11821;51.456;8.844;2023-02-10T16:16:54;22.55;;;10.07;;
23304;SDS011;11821;51.456;8.844;2023-02-10T16:19:21;15.48;;;9.13;;
23304;SDS011;11821;51.456;8.844;2023-02-10T16:21:49;15.80;;;9.38;;
23304;SDS011;11821;51.456;8.844;2023-02-10T16:24:22;13.57;;;8.77;;
23304;SDS011;11821;51.456;8.844;2023-02-10T16:26:49;15.65;;;9.80;;
23304;SDS011;11821;51.456;8.844;2023-02-10T16:29:16;19.67;;;9.77;;
23304;SDS011;11821;51.456;8.844;2023-02-10T16:31:43;18.30;;;9.43;;